sensor_id;sensor_type;location;lat;lon;timestamp;P1;durP1;ratioP1;P2;durP2;ratioP2
21979;SDS011;11154;48.558;9.234;2023-05-16T00:01:27;4.93;;;4.05;;
21979;SDS011;11154;48.558;9.234;2023-05-16T00:03:31;3.45;;;3.10;;
21979;SDS011;11154;48.558;9.234;2023-05-16T00:05:33;5.05;;;3.67;;
21979;SDS011;11154;48.558;9.234;2023-05-16T00:07:35;4.03;;;3.63;;
21979;SDS011;11154;48.558;9.234;2023-05-16T00:09:36;5.00;;;4.03;;
21979;SDS011;11154;48.558;9.234;2023-05-16T00:11:38;3.83;;;3.53;;
21979;SDS011;11154;48.558;9.234;2023-05-16T00:13:40;5.00;;;3.80;;
21979;SDS011;11154;48.558;9.234;2023-05-16T00:15:42;9.88;;;4.00;;
21979;SDS011;11154;48.558;9.234;2023-05-16T00:17:44;4.63;;;3.75;;
21979;SDS011;11154;48.558;9.234;2023-05-16T00:19:47;4.72;;;3.75;;
21979;SDS011;11154;48.558;9.234;2023-05-16T00:21:57;4.80;;;4.00;;
21979;SDS011;11154;48.558;9.234;2023-05-16T00:23:58;4.22;;;3.50;;
21979;SDS011;11154;48.558;9.234;2023-05-16T00:26:00;5.68;;;3.72;;
21979;SDS011;11154;48.558;9.234;2023-05-16T00:28:02;4.55;;;3.47;;
21979;SDS011;11154;48.558;9.234;2023-05-16T00:30:05;5.22;;;4.05;;
21979;SDS011;11154;48.558;9.234;2023-05-16T00:32:07;4.20;;;3.80;;
21979;SDS011;11154;48.558;9.234;2023-05-16T00:34:08;4.80;;;3.45;;
21979;SDS011;11154;48.558;9.234;2023-05-16T00:36:11;4.10;;;3.70;;
21979;SDS011;11154;48.558;9.234;2023-05-16T00:38:13;5.63;;;3.80;;
21979;SDS011;11154;48.558;9.234;2023-05-16T00:40:15;5.03;;;3.85;;
21979;SDS011;11154;48.558;9.234;2023-05-16T00:42:17;4.38;;;3.90;;
21979;SDS011;11154;48.558;9.234;2023-05-16T00:44:20;4.53;;;3.75;;
21979;SDS011;11154;48.558;9.234;2023-05-16T00:46:21;4.28;;;3.80;;
21979;SDS011;11154;48.558;9.234;2023-05-16T00:48:23;8.55;;;4.13;;
21979;SDS011;11154;48.558;9.234;2023-05-16T00:50:25;6.22;;;3.60;;
21979;SDS011;11154;48.558;9.234;2023-05-16T00:52:28;4.25;;;3.60;;
21979;SDS011;11154;48.558;9.234;2023-05-16T00:54:32;4.80;;;3.53;;
21979;SDS011;11154;48.558;9.234;2023-05-16T00:56:35;4.05;;;3.47;;
21979;SDS011;11154;48.558;9.234;2023-05-16T00:58:36;4.05;;;3.50;;
21979;SDS011;11154;48.558;9.234;2023-05-16T01:00:38;4.25;;;3.80;;
21979;SDS011;11154;48.558;9.234;2023-05-16T01:02:40;3.65;;;3.22;;
21979;SDS011;11154;48.558;9.234;2023-05-16T01:04:42;5.05;;;3.60;;
21979;SDS011;11154;48.558;9.234;2023-05-16T01:06:44;4.70;;;3.47;;
21979;SDS011;11154;48.558;9.234;2023-05-16T01:08:47;6.82;;;3.42;;
21979;SDS011;11154;48.558;9.234;2023-05-16T01:10:52;4.35;;;3.88;;
21979;SDS011;11154;48.558;9.234;2023-05-16T01:13:04;3.90;;;3.60;;
21979;SDS011;11154;48.558;9.234;2023-05-16T01:15:12;4.13;;;3.50;;
21979;SDS011;11154;48.558;9.234;2023-05-16T01:17:19;4.35;;;3.78;;
21979;SDS011;11154;48.558;9.234;2023-05-16T01:19:30;4.95;;;3.80;;
21979;SDS011;11154;48.558;9.234;2023-05-16T01:21:44;4.40;;;3.92;;
21979;SDS011;11154;48.558;9.234;2023-05-16T01:23:52;4.70;;;4.03;;
21979;SDS011;11154;48.558;9.234;2023-05-16T01:26:16;4.70;;;4.22;;
21979;SDS011;11154;48.558;9.234;2023-05-16T01:28:21;5.85;;;4.20;;
21979;SDS011;11154;48.558;9.234;2023-05-16T01:30:23;4.38;;;3.63;;
21979;SDS011;11154;48.558;9.234;2023-05-16T01:32:25;4.35;;;3.58;;
21979;SDS011;11154;48.558;9.234;2023-05-16T01:34:27;4.18;;;3.75;;
21979;SDS011;11154;48.558;9.234;2023-05-16T01:36:29;5.43;;;3.60;;
21979;SDS011;11154;48.558;9.234;2023-05-16T01:38:38;3.67;;;3.38;;
21979;SDS011;11154;48.558;9.234;2023-05-16T01:40:45;3.38;;;3.08;;
21979;SDS011;11154;48.558;9.234;2023-05-16T01:42:53;4.35;;;3.85;;
21979;SDS011;11154;48.558;9.234;2023-05-16T01:44:58;4.55;;;3.60;;
21979;SDS011;11154;48.558;9.234;2023-05-16T01:47:06;5.97;;;4.10;;
21979;SDS011;11154;48.558;9.234;2023-05-16T01:49:14;5.18;;;3.90;;
21979;SDS011;11154;48.558;9.234;2023-05-16T01:51:20;4.25;;;3.75;;
21979;SDS011;11154;48.558;9.234;2023-05-16T01:53:26;4.07;;;3.67;;
21979;SDS011;11154;48.558;9.234;2023-05-16T01:55:33;6.72;;;3.70;;
21979;SDS011;11154;48.558;9.234;2023-05-16T01:57:39;6.15;;;3.97;;
21979;SDS011;11154;48.558;9.234;2023-05-16T01:59:44;5.93;;;4.10;;
21979;SDS011;11154;48.558;9.234;2023-05-16T02:01:47;4.40;;;4.00;;
21979;SDS011;11154;48.558;9.234;2023-05-16T02:03:48;4.20;;;3.50;;
21979;SDS011;11154;48.558;9.234;2023-05-16T02:05:50;4.20;;;3.80;;
21979;SDS011;11154;48.558;9.234;2023-05-16T02:07:52;7.30;;;3.85;;
21979;SDS011;11154;48.558;9.234;2023-05-16T02:09:54;4.30;;;3.90;;
21979;SDS011;11154;48.558;9.234;2023-05-16T02:11:55;4.55;;;3.88;;
21979;SDS011;11154;48.558;9.234;2023-05-16T02:13:57;9.00;;;3.50;;
21979;SDS011;11154;48.558;9.234;2023-05-16T02:16:00;4.88;;;3.80;;
21979;SDS011;11154;48.558;9.234;2023-05-16T02:18:03;4.10;;;3.70;;
21979;SDS011;11154;48.558;9.234;2023-05-16T02:20:05;5.95;;;3.63;;
21979;SDS011;11154;48.558;9.234;2023-05-16T02:22:09;3.80;;;3.45;;
21979;SDS011;11154;48.558;9.234;2023-05-16T02:24:11;6.97;;;4.00;;
21979;SDS011;11154;48.558;9.234;2023-05-16T02:26:12;5.85;;;3.72;;
21979;SDS011;11154;48.558;9.234;2023-05-16T02:28:14;4.57;;;3.85;;
21979;SDS011;11154;48.558;9.234;2023-05-16T02:30:15;7.18;;;3.92;;
21979;SDS011;11154;48.558;9.234;2023-05-16T02:32:18;6.00;;;3.80;;
21979;SDS011;11154;48.558;9.234;2023-05-16T02:34:20;4.72;;;3.53;;
21979;SDS011;11154;48.558;9.234;2023-05-16T02:36:22;4.22;;;3.40;;
21979;SDS011;11154;48.558;9.234;2023-05-16T02:38:24;4.50;;;3.50;;
21979;SDS011;11154;48.558;9.234;2023-05-16T02:40:25;4.15;;;3.67;;
21979;SDS011;11154;48.558;9.234;2023-05-16T02:42:27;5.80;;;3.67;;
21979;SDS011;11154;48.558;9.234;2023-05-16T02:44:29;5.15;;;3.60;;
21979;SDS011;11154;48.558;9.234;2023-05-16T02:46:32;4.60;;;3.67;;
21979;SDS011;11154;48.558;9.234;2023-05-16T02:48:36;4.13;;;3.58;;
21979;SDS011;11154;48.558;9.234;2023-05-16T02:50:37;5.03;;;3.65;;
21979;SDS011;11154;48.558;9.234;2023-05-16T02:52:40;3.95;;;3.45;;
21979;SDS011;11154;48.558;9.234;2023-05-16T02:54:41;5.50;;;3.65;;
21979;SDS011;11154;48.558;9.234;2023-05-16T02:56:43;4.43;;;4.03;;
21979;SDS011;11154;48.558;9.234;2023-05-16T02:58:45;5.13;;;4.07;;
21979;SDS011;11154;48.558;9.234;2023-05-16T03:00:48;5.38;;;3.83;;
21979;SDS011;11154;48.558;9.234;2023-05-16T03:02:50;5.63;;;3.90;;
21979;SDS011;11154;48.558;9.234;2023-05-16T03:04:53;5.65;;;3.50;;
21979;SDS011;11154;48.558;9.234;2023-05-16T03:06:54;3.95;;;3.63;;
21979;SDS011;11154;48.558;9.234;2023-05-16T03:08:56;5.28;;;4.63;;
21979;SDS011;11154;48.558;9.234;2023-05-16T03:10:58;5.13;;;4.72;;
21979;SDS011;11154;48.558;9.234;2023-05-16T03:12:59;7.88;;;4.43;;
21979;SDS011;11154;48.558;9.234;2023-05-16T03:15:01;6.75;;;4.18;;
21979;SDS011;11154;48.558;9.234;2023-05-16T03:17:03;5.88;;;4.75;;
21979;SDS011;11154;48.558;9.234;2023-05-16T03:19:05;4.88;;;4.22;;
21979;SDS011;11154;48.558;9.234;2023-05-16T03:21:08;4.80;;;4.18;;
21979;SDS011;11154;48.558;9.234;2023-05-16T03:23:09;6.60;;;4.22;;
21979;SDS011;11154;48.558;9.234;2023-05-16T03:25:11;5.22;;;4.18;;
21979;SDS011;11154;48.558;9.234;2023-05-16T03:27:13;5.15;;;4.15;;
21979;SDS011;11154;48.558;9.234;2023-05-16T03:29:15;10.02;;;7.32;;
21979;SDS011;11154;48.558;9.234;2023-05-16T03:31:16;9.45;;;6.72;;
21979;SDS011;11154;48.558;9.234;2023-05-16T03:33:18;10.55;;;7.85;;
21979;SDS011;11154;48.558;9.234;2023-05-16T03:35:20;9.05;;;6.88;;
21979;SDS011;11154;48.558;9.234;2023-05-16T03:37:23;6.32;;;5.68;;
21979;SDS011;11154;48.558;9.234;2023-05-16T03:39:25;5.00;;;4.50;;
21979;SDS011;11154;48.558;9.234;2023-05-16T03:41:27;5.30;;;4.43;;
21979;SDS011;11154;48.558;9.234;2023-05-16T03:43:28;5.22;;;4.60;;
21979;SDS011;11154;48.558;9.234;2023-05-16T03:45:30;5.07;;;3.78;;
21979;SDS011;11154;48.558;9.234;2023-05-16T03:47:31;7.22;;;3.92;;
21979;SDS011;11154;48.558;9.234;2023-05-16T03:49:33;5.60;;;4.03;;
21979;SDS011;11154;48.558;9.234;2023-05-16T03:51:36;4.40;;;4.00;;
21979;SDS011;11154;48.558;9.234;2023-05-16T03:53:39;4.90;;;4.05;;
21979;SDS011;11154;48.558;9.234;2023-05-16T03:55:40;5.32;;;4.30;;
21979;SDS011;11154;48.558;9.234;2023-05-16T03:57:42;6.57;;;4.15;;
21979;SDS011;11154;48.558;9.234;2023-05-16T03:59:44;4.60;;;4.20;;
21979;SDS011;11154;48.558;9.234;2023-05-16T04:01:45;4.82;;;3.97;;
21979;SDS011;11154;48.558;9.234;2023-05-16T04:03:47;6.95;;;4.18;;
21979;SDS011;11154;48.558;9.234;2023-05-16T04:05:49;7.18;;;5.00;;
21979;SDS011;11154;48.558;9.234;2023-05-16T04:07:51;6.75;;;4.60;;
21979;SDS011;11154;48.558;9.234;2023-05-16T04:09:54;9.13;;;4.68;;
21979;SDS011;11154;48.558;9.234;2023-05-16T04:11:57;7.82;;;4.75;;
21979;SDS011;11154;48.558;9.234;2023-05-16T04:14:00;6.38;;;4.47;;
21979;SDS011;11154;48.558;9.234;2023-05-16T04:16:02;6.13;;;4.00;;
21979;SDS011;11154;48.558;9.234;2023-05-16T04:18:04;9.55;;;4.45;;
21979;SDS011;11154;48.558;9.234;2023-05-16T04:20:06;5.47;;;4.38;;
21979;SDS011;11154;48.558;9.234;2023-05-16T04:22:08;4.55;;;4.15;;
21979;SDS011;11154;48.558;9.234;2023-05-16T04:24:10;6.30;;;4.32;;
21979;SDS011;11154;48.558;9.234;2023-05-16T04:26:13;5.22;;;3.75;;
21979;SDS011;11154;48.558;9.234;2023-05-16T04:28:14;4.88;;;4.15;;
21979;SDS011;11154;48.558;9.234;2023-05-16T04:30:17;5.78;;;4.00;;
21979;SDS011;11154;48.558;9.234;2023-05-16T04:32:18;4.10;;;3.70;;
21979;SDS011;11154;48.558;9.234;2023-05-16T04:34:20;3.83;;;3.35;;
21979;SDS011;11154;48.558;9.234;2023-05-16T04:36:26;4.20;;;3.78;;
21979;SDS011;11154;48.558;9.234;2023-05-16T04:38:30;4.63;;;3.72;;
21979;SDS011;11154;48.558;9.234;2023-05-16T04:40:32;4.47;;;3.97;;
21979;SDS011;11154;48.558;9.234;2023-05-16T04:42:35;4.30;;;3.90;;
21979;SDS011;11154;48.558;9.234;2023-05-16T04:44:37;4.00;;;3.60;;
21979;SDS011;11154;48.558;9.234;2023-05-16T04:46:39;9.10;;;4.38;;
21979;SDS011;11154;48.558;9.234;2023-05-16T04:48:40;6.57;;;4.03;;
21979;SDS011;11154;48.558;9.234;2023-05-16T04:50:42;5.05;;;4.20;;
21979;SDS011;11154;48.558;9.234;2023-05-16T04:52:43;4.72;;;4.32;;
21979;SDS011;11154;48.558;9.234;2023-05-16T04:54:45;5.07;;;4.53;;
21979;SDS011;11154;48.558;9.234;2023-05-16T04:56:51;7.53;;;4.75;;
21979;SDS011;11154;48.558;9.234;2023-05-16T04:58:54;6.38;;;4.80;;
21979;SDS011;11154;48.558;9.234;2023-05-16T05:00:55;6.35;;;4.38;;
21979;SDS011;11154;48.558;9.234;2023-05-16T05:02:58;5.35;;;4.85;;
21979;SDS011;11154;48.558;9.234;2023-05-16T05:05:00;5.53;;;4.60;;
21979;SDS011;11154;48.558;9.234;2023-05-16T05:07:02;6.97;;;4.10;;
21979;SDS011;11154;48.558;9.234;2023-05-16T05:09:04;6.63;;;4.32;;
21979;SDS011;11154;48.558;9.234;2023-05-16T05:11:06;5.82;;;4.93;;
21979;SDS011;11154;48.558;9.234;2023-05-16T05:13:07;8.93;;;5.63;;
21979;SDS011;11154;48.558;9.234;2023-05-16T05:15:10;8.35;;;5.95;;
21979;SDS011;11154;48.558;9.234;2023-05-16T05:17:12;10.57;;;7.45;;
21979;SDS011;11154;48.558;9.234;2023-05-16T05:19:14;22.70;;;17.63;;
21979;SDS011;11154;48.558;9.234;2023-05-16T05:21:15;23.92;;;18.00;;
21979;SDS011;11154;48.558;9.234;2023-05-16T05:23:18;20.85;;;16.05;;
21979;SDS011;11154;48.558;9.234;2023-05-16T05:25:20;25.45;;;18.30;;
21979;SDS011;11154;48.558;9.234;2023-05-16T05:27:22;26.58;;;19.17;;
21979;SDS011;11154;48.558;9.234;2023-05-16T05:29:24;23.13;;;18.15;;
21979;SDS011;11154;48.558;9.234;2023-05-16T05:31:27;24.50;;;18.83;;
21979;SDS011;11154;48.558;9.234;2023-05-16T05:33:29;23.67;;;19.20;;
21979;SDS011;11154;48.558;9.234;2023-05-16T05:35:31;20.58;;;16.65;;
21979;SDS011;11154;48.558;9.234;2023-05-16T05:37:32;21.40;;;16.63;;
21979;SDS011;11154;48.558;9.234;2023-05-16T05:39:34;20.70;;;16.48;;
21979;SDS011;11154;48.558;9.234;2023-05-16T05:41:36;22.08;;;17.65;;
21979;SDS011;11154;48.558;9.234;2023-05-16T05:43:38;19.77;;;15.60;;
21979;SDS011;11154;48.558;9.234;2023-05-16T05:45:39;20.02;;;14.57;;
21979;SDS011;11154;48.558;9.234;2023-05-16T05:47:42;19.98;;;16.00;;
21979;SDS011;11154;48.558;9.234;2023-05-16T05:49:45;22.15;;;16.08;;
21979;SDS011;11154;48.558;9.234;2023-05-16T05:51:46;20.38;;;14.15;;
21979;SDS011;11154;48.558;9.234;2023-05-16T05:53:50;21.55;;;15.93;;
21979;SDS011;11154;48.558;9.234;2023-05-16T05:55:52;19.08;;;14.85;;
21979;SDS011;11154;48.558;9.234;2023-05-16T05:57:54;19.92;;;13.85;;
21979;SDS011;11154;48.558;9.234;2023-05-16T05:59:55;19.23;;;14.07;;
21979;SDS011;11154;48.558;9.234;2023-05-16T06:01:57;24.80;;;16.90;;
21979;SDS011;11154;48.558;9.234;2023-05-16T06:04:00;25.90;;;19.65;;
21979;SDS011;11154;48.558;9.234;2023-05-16T06:06:02;27.33;;;17.60;;
21979;SDS011;11154;48.558;9.234;2023-05-16T06:08:04;27.33;;;17.83;;
21979;SDS011;11154;48.558;9.234;2023-05-16T06:10:06;22.17;;;16.17;;
21979;SDS011;11154;48.558;9.234;2023-05-16T06:12:08;29.95;;;20.38;;
21979;SDS011;11154;48.558;9.234;2023-05-16T06:14:10;28.23;;;21.23;;
21979;SDS011;11154;48.558;9.234;2023-05-16T06:16:12;29.85;;;21.60;;
21979;SDS011;11154;48.558;9.234;2023-05-16T06:18:13;30.48;;;23.08;;
21979;SDS011;11154;48.558;9.234;2023-05-16T06:20:16;29.30;;;22.25;;
21979;SDS011;11154;48.558;9.234;2023-05-16T06:22:18;29.50;;;22.52;;
21979;SDS011;11154;48.558;9.234;2023-05-16T06:24:20;28.98;;;21.85;;
21979;SDS011;11154;48.558;9.234;2023-05-16T06:26:22;30.13;;;22.40;;
21979;SDS011;11154;48.558;9.234;2023-05-16T06:28:23;29.80;;;22.80;;
21979;SDS011;11154;48.558;9.234;2023-05-16T06:30:25;29.40;;;22.30;;
21979;SDS011;11154;48.558;9.234;2023-05-16T06:32:27;30.58;;;22.90;;
21979;SDS011;11154;48.558;9.234;2023-05-16T06:34:28;31.65;;;23.92;;
21979;SDS011;11154;48.558;9.234;2023-05-16T06:36:32;31.13;;;23.05;;
21979;SDS011;11154;48.558;9.234;2023-05-16T06:38:34;31.30;;;23.55;;
21979;SDS011;11154;48.558;9.234;2023-05-16T06:40:35;30.90;;;23.48;;
21979;SDS011;11154;48.558;9.234;2023-05-16T06:42:37;32.58;;;23.95;;
21979;SDS011;11154;48.558;9.234;2023-05-16T06:44:39;31.27;;;24.00;;
21979;SDS011;11154;48.558;9.234;2023-05-16T06:46:40;33.13;;;23.58;;
21979;SDS011;11154;48.558;9.234;2023-05-16T06:48:42;33.15;;;23.33;;
21979;SDS011;11154;48.558;9.234;2023-05-16T06:50:46;31.10;;;23.10;;
21979;SDS011;11154;48.558;9.234;2023-05-16T06:52:49;31.88;;;24.10;;
21979;SDS011;11154;48.558;9.234;2023-05-16T06:54:51;30.60;;;23.52;;
21979;SDS011;11154;48.558;9.234;2023-05-16T06:56:52;30.92;;;23.05;;
21979;SDS011;11154;48.558;9.234;2023-05-16T06:58:54;31.45;;;23.70;;
21979;SDS011;11154;48.558;9.234;2023-05-16T07:00:56;34.30;;;24.13;;
21979;SDS011;11154;48.558;9.234;2023-05-16T07:02:58;30.17;;;23.23;;
21979;SDS011;11154;48.558;9.234;2023-05-16T07:04:59;29.27;;;23.48;;
21979;SDS011;11154;48.558;9.234;2023-05-16T07:07:01;28.67;;;21.73;;
21979;SDS011;11154;48.558;9.234;2023-05-16T07:09:04;28.67;;;22.17;;
21979;SDS011;11154;48.558;9.234;2023-05-16T07:11:06;27.77;;;21.70;;
21979;SDS011;11154;48.558;9.234;2023-05-16T07:13:10;25.05;;;20.55;;
21979;SDS011;11154;48.558;9.234;2023-05-16T07:15:12;27.77;;;20.67;;
21979;SDS011;11154;48.558;9.234;2023-05-16T07:17:13;25.73;;;19.25;;
21979;SDS011;11154;48.558;9.234;2023-05-16T07:19:15;25.83;;;19.55;;
21979;SDS011;11154;48.558;9.234;2023-05-16T07:21:17;23.85;;;18.30;;
21979;SDS011;11154;48.558;9.234;2023-05-16T07:23:18;25.45;;;19.15;;
21979;SDS011;11154;48.558;9.234;2023-05-16T07:25:21;26.27;;;19.17;;
21979;SDS011;11154;48.558;9.234;2023-05-16T07:27:23;26.85;;;18.77;;
21979;SDS011;11154;48.558;9.234;2023-05-16T07:29:25;24.50;;;19.15;;
21979;SDS011;11154;48.558;9.234;2023-05-16T07:31:27;26.05;;;19.50;;
21979;SDS011;11154;48.558;9.234;2023-05-16T07:33:29;25.42;;;19.67;;
21979;SDS011;11154;48.558;9.234;2023-05-16T07:35:30;22.77;;;17.98;;
21979;SDS011;11154;48.558;9.234;2023-05-16T07:37:32;24.25;;;17.50;;
21979;SDS011;11154;48.558;9.234;2023-05-16T07:39:33;22.00;;;17.77;;
21979;SDS011;11154;48.558;9.234;2023-05-16T07:41:36;21.45;;;17.10;;
21979;SDS011;11154;48.558;9.234;2023-05-16T07:43:38;23.13;;;17.92;;
21979;SDS011;11154;48.558;9.234;2023-05-16T07:45:40;23.55;;;17.17;;
21979;SDS011;11154;48.558;9.234;2023-05-16T07:47:42;23.27;;;17.77;;
21979;SDS011;11154;48.558;9.234;2023-05-16T07:49:43;21.27;;;17.02;;
21979;SDS011;11154;48.558;9.234;2023-05-16T07:51:45;21.58;;;16.85;;
21979;SDS011;11154;48.558;9.234;2023-05-16T07:53:47;21.27;;;16.77;;
21979;SDS011;11154;48.558;9.234;2023-05-16T07:55:48;22.02;;;17.73;;
21979;SDS011;11154;48.558;9.234;2023-05-16T07:57:51;20.02;;;16.48;;
21979;SDS011;11154;48.558;9.234;2023-05-16T07:59:53;24.17;;;17.60;;
21979;SDS011;11154;48.558;9.234;2023-05-16T08:01:55;19.48;;;16.63;;
21979;SDS011;11154;48.558;9.234;2023-05-16T08:03:57;23.63;;;16.52;;
21979;SDS011;11154;48.558;9.234;2023-05-16T08:05:58;21.20;;;16.30;;
21979;SDS011;11154;48.558;9.234;2023-05-16T08:08:00;21.38;;;15.98;;
21979;SDS011;11154;48.558;9.234;2023-05-16T08:10:01;21.35;;;16.35;;
21979;SDS011;11154;48.558;9.234;2023-05-16T08:12:03;20.80;;;16.40;;
21979;SDS011;11154;48.558;9.234;2023-05-16T08:14:07;17.67;;;14.77;;
21979;SDS011;11154;48.558;9.234;2023-05-16T08:16:08;19.83;;;14.80;;
21979;SDS011;11154;48.558;9.234;2023-05-16T08:18:11;17.60;;;14.20;;
21979;SDS011;11154;48.558;9.234;2023-05-16T08:20:14;19.50;;;14.30;;
21979;SDS011;11154;48.558;9.234;2023-05-16T08:22:16;17.90;;;14.88;;
21979;SDS011;11154;48.558;9.234;2023-05-16T08:24:17;16.95;;;13.95;;
21979;SDS011;11154;48.558;9.234;2023-05-16T08:26:19;17.52;;;13.50;;
21979;SDS011;11154;48.558;9.234;2023-05-16T08:28:21;19.77;;;13.43;;
21979;SDS011;11154;48.558;9.234;2023-05-16T08:30:25;15.07;;;12.10;;
21979;SDS011;11154;48.558;9.234;2023-05-16T08:32:26;19.77;;;12.68;;
21979;SDS011;11154;48.558;9.234;2023-05-16T08:34:29;18.38;;;14.10;;
21979;SDS011;11154;48.558;9.234;2023-05-16T08:36:31;12.25;;;10.18;;
21979;SDS011;11154;48.558;9.234;2023-05-16T08:38:34;10.20;;;8.90;;
21979;SDS011;11154;48.558;9.234;2023-05-16T08:40:36;11.10;;;9.38;;
21979;SDS011;11154;48.558;9.234;2023-05-16T08:42:37;10.27;;;8.80;;
21979;SDS011;11154;48.558;9.234;2023-05-16T08:44:39;9.93;;;8.23;;
21979;SDS011;11154;48.558;9.234;2023-05-16T08:46:43;10.52;;;8.13;;
21979;SDS011;11154;48.558;9.234;2023-05-16T08:48:47;10.68;;;8.23;;
21979;SDS011;11154;48.558;9.234;2023-05-16T08:50:52;8.52;;;7.10;;
21979;SDS011;11154;48.558;9.234;2023-05-16T08:52:54;9.18;;;7.20;;
21979;SDS011;11154;48.558;9.234;2023-05-16T08:54:56;10.35;;;7.82;;
21979;SDS011;11154;48.558;9.234;2023-05-16T08:57:01;9.30;;;7.22;;
21979;SDS011;11154;48.558;9.234;2023-05-16T08:59:05;8.52;;;7.13;;
21979;SDS011;11154;48.558;9.234;2023-05-16T09:01:07;8.27;;;7.20;;
21979;SDS011;11154;48.558;9.234;2023-05-16T09:03:10;7.60;;;6.57;;
21979;SDS011;11154;48.558;9.234;2023-05-16T09:05:13;8.68;;;7.32;;
21979;SDS011;11154;48.558;9.234;2023-05-16T09:07:16;7.50;;;6.68;;
21979;SDS011;11154;48.558;9.234;2023-05-16T09:09:17;8.07;;;7.25;;
21979;SDS011;11154;48.558;9.234;2023-05-16T09:11:19;9.48;;;7.70;;
21979;SDS011;11154;48.558;9.234;2023-05-16T09:13:21;9.48;;;7.50;;
21979;SDS011;11154;48.558;9.234;2023-05-16T09:15:27;8.10;;;6.97;;
21979;SDS011;11154;48.558;9.234;2023-05-16T09:17:33;8.35;;;7.10;;
21979;SDS011;11154;48.558;9.234;2023-05-16T09:19:38;10.90;;;7.22;;
21979;SDS011;11154;48.558;9.234;2023-05-16T09:21:41;9.93;;;7.20;;
21979;SDS011;11154;48.558;9.234;2023-05-16T09:23:42;10.10;;;7.53;;
21979;SDS011;11154;48.558;9.234;2023-05-16T09:25:45;9.00;;;7.80;;
21979;SDS011;11154;48.558;9.234;2023-05-16T09:27:47;9.38;;;8.00;;
21979;SDS011;11154;48.558;9.234;2023-05-16T09:29:49;9.90;;;8.88;;
21979;SDS011;11154;48.558;9.234;2023-05-16T09:31:51;10.07;;;9.05;;
21979;SDS011;11154;48.558;9.234;2023-05-16T09:33:53;11.02;;;8.57;;
21979;SDS011;11154;48.558;9.234;2023-05-16T09:35:58;11.93;;;8.60;;
21979;SDS011;11154;48.558;9.234;2023-05-16T09:38:00;12.27;;;10.25;;
21979;SDS011;11154;48.558;9.234;2023-05-16T09:40:02;11.23;;;9.30;;
21979;SDS011;11154;48.558;9.234;2023-05-16T09:42:04;10.35;;;9.27;;
21979;SDS011;11154;48.558;9.234;2023-05-16T09:44:06;12.40;;;10.10;;
21979;SDS011;11154;48.558;9.234;2023-05-16T09:46:10;11.23;;;9.65;;
21979;SDS011;11154;48.558;9.234;2023-05-16T09:48:13;13.35;;;10.95;;
21979;SDS011;11154;48.558;9.234;2023-05-16T09:50:16;12.75;;;11.13;;
21979;SDS011;11154;48.558;9.234;2023-05-16T09:52:20;12.32;;;10.77;;
21979;SDS011;11154;48.558;9.234;2023-05-16T09:54:29;12.55;;;10.65;;
21979;SDS011;11154;48.558;9.234;2023-05-16T09:56:32;13.07;;;11.60;;
21979;SDS011;11154;48.558;9.234;2023-05-16T09:58:34;14.27;;;11.88;;
21979;SDS011;11154;48.558;9.234;2023-05-16T10:00:38;12.00;;;10.73;;
21979;SDS011;11154;48.558;9.234;2023-05-16T10:02:41;14.55;;;11.07;;
21979;SDS011;11154;48.558;9.234;2023-05-16T10:04:44;12.50;;;11.20;;
21979;SDS011;11154;48.558;9.234;2023-05-16T10:06:47;13.75;;;11.52;;
21979;SDS011;11154;48.558;9.234;2023-05-16T10:08:52;14.90;;;11.93;;
21979;SDS011;11154;48.558;9.234;2023-05-16T10:10:55;14.60;;;12.25;;
21979;SDS011;11154;48.558;9.234;2023-05-16T10:12:57;15.35;;;13.23;;
21979;SDS011;11154;48.558;9.234;2023-05-16T10:15:00;15.65;;;12.55;;
21979;SDS011;11154;48.558;9.234;2023-05-16T10:17:04;17.65;;;13.23;;
21979;SDS011;11154;48.558;9.234;2023-05-16T10:19:08;15.15;;;12.70;;
21979;SDS011;11154;48.558;9.234;2023-05-16T10:21:12;16.95;;;12.88;;
21979;SDS011;11154;48.558;9.234;2023-05-16T10:23:16;15.60;;;12.98;;
21979;SDS011;11154;48.558;9.234;2023-05-16T10:25:22;15.63;;;12.82;;
21979;SDS011;11154;48.558;9.234;2023-05-16T10:27:29;15.57;;;12.57;;
21979;SDS011;11154;48.558;9.234;2023-05-16T10:29:31;16.17;;;12.57;;
21979;SDS011;11154;48.558;9.234;2023-05-16T10:31:33;15.30;;;12.98;;
21979;SDS011;11154;48.558;9.234;2023-05-16T10:33:36;16.60;;;13.50;;
21979;SDS011;11154;48.558;9.234;2023-05-16T10:35:38;16.02;;;13.32;;
21979;SDS011;11154;48.558;9.234;2023-05-16T10:37:39;19.15;;;14.73;;
21979;SDS011;11154;48.558;9.234;2023-05-16T10:39:42;18.33;;;14.60;;
21979;SDS011;11154;48.558;9.234;2023-05-16T10:41:46;18.60;;;13.43;;
21979;SDS011;11154;48.558;9.234;2023-05-16T10:43:54;17.15;;;14.15;;
21979;SDS011;11154;48.558;9.234;2023-05-16T10:45:58;16.58;;;13.68;;
21979;SDS011;11154;48.558;9.234;2023-05-16T10:48:04;19.38;;;15.30;;
21979;SDS011;11154;48.558;9.234;2023-05-16T10:50:08;23.17;;;15.57;;
21979;SDS011;11154;48.558;9.234;2023-05-16T10:52:11;19.20;;;15.27;;
21979;SDS011;11154;48.558;9.234;2023-05-16T10:54:14;20.00;;;16.25;;
21979;SDS011;11154;48.558;9.234;2023-05-16T10:56:21;18.75;;;15.65;;
21979;SDS011;11154;48.558;9.234;2023-05-16T10:58:26;20.42;;;15.50;;
21979;SDS011;11154;48.558;9.234;2023-05-16T11:00:43;19.38;;;15.35;;
21979;SDS011;11154;48.558;9.234;2023-05-16T11:02:45;18.35;;;15.40;;
21979;SDS011;11154;48.558;9.234;2023-05-16T11:04:47;19.52;;;16.23;;
21979;SDS011;11154;48.558;9.234;2023-05-16T11:06:51;22.05;;;15.75;;
21979;SDS011;11154;48.558;9.234;2023-05-16T11:09:05;21.48;;;16.75;;
21979;SDS011;11154;48.558;9.234;2023-05-16T11:13:54;20.00;;;16.05;;
21979;SDS011;11154;48.558;9.234;2023-05-16T11:18:30;21.05;;;15.77;;
21979;SDS011;11154;48.558;9.234;2023-05-16T11:20:33;20.40;;;15.55;;
21979;SDS011;11154;48.558;9.234;2023-05-16T11:22:37;21.90;;;15.65;;
21979;SDS011;11154;48.558;9.234;2023-05-16T11:24:47;21.05;;;16.40;;
21979;SDS011;11154;48.558;9.234;2023-05-16T11:26:52;19.48;;;15.60;;
21979;SDS011;11154;48.558;9.234;2023-05-16T11:28:55;21.83;;;15.80;;
21979;SDS011;11154;48.558;9.234;2023-05-16T11:30:58;20.50;;;17.30;;
21979;SDS011;11154;48.558;9.234;2023-05-16T11:33:01;18.60;;;16.35;;
21979;SDS011;11154;48.558;9.234;2023-05-16T11:35:03;18.95;;;15.60;;
21979;SDS011;11154;48.558;9.234;2023-05-16T11:37:09;21.10;;;16.15;;
21979;SDS011;11154;48.558;9.234;2023-05-16T11:39:11;19.10;;;16.05;;
21979;SDS011;11154;48.558;9.234;2023-05-16T11:41:12;21.30;;;14.85;;
21979;SDS011;11154;48.558;9.234;2023-05-16T11:43:16;20.52;;;16.25;;
21979;SDS011;11154;48.558;9.234;2023-05-16T11:45:20;20.52;;;16.52;;
21979;SDS011;11154;48.558;9.234;2023-05-16T11:47:24;20.85;;;16.25;;
21979;SDS011;11154;48.558;9.234;2023-05-16T11:49:26;20.88;;;15.60;;
21979;SDS011;11154;48.558;9.234;2023-05-16T11:51:29;21.25;;;15.38;;
21979;SDS011;11154;48.558;9.234;2023-05-16T11:53:31;18.20;;;15.10;;
21979;SDS011;11154;48.558;9.234;2023-05-16T11:55:33;19.50;;;14.77;;
21979;SDS011;11154;48.558;9.234;2023-05-16T11:57:36;19.45;;;15.57;;
21979;SDS011;11154;48.558;9.234;2023-05-16T11:59:38;21.95;;;15.80;;
21979;SDS011;11154;48.558;9.234;2023-05-16T12:01:42;19.67;;;15.73;;
21979;SDS011;11154;48.558;9.234;2023-05-16T12:03:43;19.77;;;15.38;;
21979;SDS011;11154;48.558;9.234;2023-05-16T12:05:49;23.35;;;15.32;;
21979;SDS011;11154;48.558;9.234;2023-05-16T12:07:52;23.45;;;15.63;;
21979;SDS011;11154;48.558;9.234;2023-05-16T12:09:54;19.88;;;15.40;;
21979;SDS011;11154;48.558;9.234;2023-05-16T12:11:55;19.10;;;15.15;;
21979;SDS011;11154;48.558;9.234;2023-05-16T12:13:57;18.05;;;13.95;;